Pronóstico
Mapa Interactivo
Aviación
Climatología
Hidrometeorología
Agrometeorología
Estaciones Automáticas
Transparencia
OMM WMO
Portada
Institución
Noticias
Imágenes
Tsunami
Historial
Boletines y Alertas
Contactos
Buscar Contenidos
Informe del Tiempo

                                         SANTO DOMINGO 24 DE ENERO DEL 2018

 

 

FTDR31 MDSD 240400Z
TAF 

 

TAF MDPP 240400Z 2406/2506 00000KT 9999 FEW016=

TAF MDST 240400Z 2406/2506 00000KT 9999 SCT018 PROB40 2407/2411 7000 -RA BKN016=

TAF MDPC 240400Z 2406/2506 09010KT 9999 SCT018 PROB40 2407/2411 5000 RA SCT016 BKN070=

TAF MDBH 240400Z 2406/2506 00000KT 9999 FEW016 SCT300 BECMG 2415/2417 13016KT PROB30 TEMPO 2423/2503 7000 -RA FEW014CB BKN016 BKN070=

TAF MDJB 240400Z 2406/2506 00000KT 9999 FEW016 PROB40 2405/2411 5000 BR BECMG 2414/2416 05010KT PROB40 TEMPO 2417/2423 6000 -RA FEW014CB BKN016 BKN070=

TAF MDSD 240400Z 2406/2506 01004KT 9999 SCT016 PROB30 TEMPO 2406/2410 7000 -RA SCT016 BKN070 BECMG 2415/2417 07010KT PROB40 TEMPO 2419/2501 5000 RA FEW014CB BKN016 BKN070=

TAF MDLR 240400Z 2406/2506 00000KT 9999 SCT016 BKN070 PROB30 2406/2412 8000 -RA SCT016 BKN070 BECMG 2415/2417 06010KT=

TAF MDCY 240400Z 2406/2506 00000KT 9999 FEW016 SCT300 TEMPO 2407/2411 5000 BR PROB40 TEMPO 2415/2421 6000 -RA BKN016 BKN070 BECMG 2415/2417 06010KT= 

 

MDPP AEROPUERTO INTERNACIONAL LA UNION PUERTO PLATA

MDST AEROPUERTO INTERNACIONAL DE SANTIAGO

MDPC AEROPUERTO INTERNACIONAL PUNTA CANA

MDBH AEROPUERTO INTERNACIONAL DE BARAHONA

MDJB AEROPUERTO INTERNACIONAL JOAQUIN BALAGUER

MDSD AEROPUERTO INTERNACIONAL LAS AMERICAS

MDLR AEROPUERTO INTERNACIONAL LA ROMANA

MDCY AEROPUERTO INTERNACIONAL DE CATEY

 

MDSD  -  MDBH  -  MDJB  -  MDCY  //  ROBIN RODRIGUEZ   

MDPP // J.ACOSTA

MDST // E.BURGOS

MDPC // C.FLORIAN